Historyczne dane pomiarowe

Dodano dane terminowe – wersja testowa.

Dane z okresu 1951-2019

Wersja bazy: 1.34 [2019-03-16, lista zmian], aktualizacja planowana na 2019-04-15

Dane meteo z obszaru Polski uzyskane na podstawie danych udostępnionych przez Instytut Meteorologii i Gospodarki Wodnej – Państwowy Instytut Badawczy.

 

Wybierz Datę:    

       

TemperaturaWilgotnośćZachmurzenieWiatrCiśnienieWidzialnośćZjawiska
 Data    tng td wb rh cc ccl cl cm ch dir g1 g2 mslp ppp      
1994-07-26 00:00:00 15.8--- 13.1 14.284wxwxwx0wx--1018.6 978.1 0.0---wx
1994-07-26 01:00:00 15.2--- 14.0 14.593wxwx0wx--1018.7 978.1----wx
1994-07-26 02:00:00 13.8--- 13.5 13.698wxwx0wx--1018.9 978.1----wx
1994-07-26 03:00:00 13.7--- 12.3 12.991wxwxwx0wx--1019.1 978.3----wx
1994-07-26 04:00:00 13.4--- 12.4 12.893wxwxwx0wx--1019.7 978.8----wx
1994-07-26 05:00:00 14.7--- 13.5 14.093wxwxwx1wx--1019.7 979.0----wx
1994-07-26 06:00:00 17.8--- 13.1 15.074wxwxwx0wx--1019.3 979.1 0.0---wx
1994-07-26 07:00:00 22.9--- 15.2 18.062wxwxwx0wx--1018.4 978.9----wx
1994-07-26 08:00:00 27.3--- 16.5 20.252wxwxwxwx0wx--1017.9 979.0----wx
1994-07-26 09:00:00 30.2--- 11.7 18.832wxwxwxwx0wx--1017.5 978.9----wx
1994-07-26 10:00:00 32.0--- 10.8 19.027wxwxwx2wx--1017.2 978.9----wx
1994-07-26 11:00:00 32.4--- 9.0 18.424wxwxwx3wx--1017.0 978.7----wx
1994-07-26 12:00:00 31.6--- 8.7 18.024wxwxwx1wx--1017.1 978.7 0.0---wx
1994-07-26 13:00:00 32.0--- 10.8 19.027wxwxwx1wx--1016.6 978.3----wx
1994-07-26 14:00:00 32.4--- 10.5 19.026wxwxwxwx2wx--1016.2 978.0----wx
1994-07-26 15:00:00 31.6--- 11.1 19.028wxwxwx2wx--1016.0 977.7----wx
1994-07-26 16:00:00 31.4--- 11.3 19.029wxwxwx0wx--1016.0 977.6----wx
1994-07-26 17:00:00 29.6--- 11.3 18.432wxwxwx2wx--1016.2 977.6----wx
1994-07-26 18:00:00 27.0--- 14.4 19.046wxwxwxwx0wx--1016.8 977.9 0.0---wx
1994-07-26 19:00:00 23.2--- 15.3 18.261wxwxwxwx0wx--1017.9 978.4----wx
1994-07-26 20:00:00 21.4--- 15.4 17.669wxwxwxwx0wx--1018.5 978.8----wx
1994-07-26 21:00:00 19.6--- 15.8 17.279wxwxwx0wx--1019.3 979.3----wx
1994-07-26 22:00:00 19.0--- 14.5 16.275wxwxwxwx0wx--1019.7 979.6----wx
1994-07-26 23:00:00 18.2--- 14.6 16.080wxwxwxwx0wx--1019.8 979.6----wx

 

Źródłem pochodzenia danych jest Instytut Meteorologii i Gospodarki Wodnej – Państwowy Instytut Badawczy. Dane Instytutu Meteorologii i Gospodarki Wodnej – Państwowego Instytutu Badawczego zostały przetworzone.

Dane źródłowe można odnaleźć na stronie https://dane.imgw.pl